Bangall, New York
Current Conditions -  °F | °C
As of 12:53 AM on Friday 19 Dec 2014 (Local Time) from KPOU Reporting Station
Overcast Overcast  
Wind Chill: 32°   Ceiling: 3800
Heat Index: 37°   Visibility: 10mi
Dew Point: 25°   Wind: 6mph
Humidity: 62%   Direction: 310°NW
Pressure: 29.95"   Gusts: NA
Location:  41.87°N, 73.68°W
Report Text: KPOU 190553Z AUTO 31005KT 10SM OVC038 03/M04 A2995 RMK AO2 SLP139 T00281039 10033 20022 50002 TSNO
Loading
Personal Weather Stations






























Interactive Weather Map New forecast layout! Learn more

10-Day Weather Forecast

Advertisements
Track Severe Weather on mobile